Time;durP1;ratioP1;P1;durP2;ratioP2;P2;SDS_P1;SDS_P2;PMS_P1;PMS_P2;Temp;Humidity;BMP_temperature;BMP_pressure;BME280_temperature;BME280_humidity;BME280_pressure;Samples;Min_cycle;Max_cycle;Signal;HPM_P1;HPM_P2
2024/04/13 00:02:17;;;;;;;3.92;3.15;;;;;;;19.67;44.53;98437.19;5323964;26;20009;-85
2024/04/13 00:04:42;;;;;;;3.30;3.00;;;;;;;19.45;44.85;98425.94;5338429;26;20015;-86
2024/04/13 00:07:08;;;;;;;3.42;3.10;;;;;;;19.44;45.30;98429.63;5338397;26;20649;-83
2024/04/13 00:09:33;;;;;;;2.95;2.50;;;;;;;19.43;45.25;98429.88;5384708;26;20016;-84
2024/04/13 00:11:58;;;;;;;2.92;2.63;;;;;;;19.51;45.00;98433.81;5294820;27;20013;-84
2024/04/13 00:14:24;;;;;;;3.28;2.60;;;;;;;19.50;45.20;98433.03;5326354;26;20020;-86
2024/04/13 00:16:49;;;;;;;2.83;2.60;;;;;;;19.54;44.89;98428.00;5343171;26;20024;-85
2024/04/13 00:19:15;;;;;;;2.83;2.60;;;;;;;19.52;44.88;98430.09;5321682;26;20013;-86
2024/04/13 00:21:41;;;;;;;3.10;2.80;;;;;;;19.40;45.22;98417.25;5313358;26;20333;-81
2024/04/13 00:24:06;;;;;;;2.95;2.50;;;;;;;19.35;45.17;98415.41;5277849;27;20464;-81
2024/04/13 00:26:34;;;;;;;3.65;3.22;;;;;;;19.38;45.26;98427.25;5299972;26;20023;-81
2024/04/13 00:28:59;;;;;;;3.67;3.03;;;;;;;19.41;44.82;98416.16;5335801;26;20008;-81
2024/04/13 00:31:25;;;;;;;6.03;3.55;;;;;;;19.36;44.96;98427.53;5360674;26;20087;-81
2024/04/13 00:33:51;;;;;;;3.65;3.25;;;;;;;19.27;44.92;98427.31;5317262;26;20439;-81
2024/04/13 00:36:19;;;;;;;3.42;3.13;;;;;;;19.29;44.96;98421.75;5342961;26;20016;-82
2024/04/13 00:38:45;;;;;;;3.40;3.10;;;;;;;19.07;45.24;98407.06;5293120;26;20008;-82
2024/04/13 00:41:12;;;;;;;3.58;3.05;;;;;;;19.15;45.29;98413.63;5348296;26;20024;-81
2024/04/13 00:43:37;;;;;;;3.92;3.35;;;;;;;19.10;45.24;98405.72;5306466;26;20438;-81
2024/04/13 00:46:07;;;;;;;3.85;3.13;;;;;;;19.18;44.92;98412.31;5319030;26;20005;-81
2024/04/13 00:48:36;;;;;;;5.30;3.13;;;;;;;19.14;45.29;98411.25;5277603;26;20526;-81
2024/04/13 00:51:04;;;;;;;4.38;3.53;;;;;;;19.21;45.22;98411.75;5308701;26;20067;-85
2024/04/13 00:53:33;;;;;;;3.70;2.97;;;;;;;19.22;45.17;98411.47;5351228;26;20013;-86
2024/04/13 00:56:00;;;;;;;5.20;3.22;;;;;;;19.20;45.24;98418.88;5297409;26;20424;-86
2024/04/13 00:58:27;;;;;;;4.47;3.10;;;;;;;19.08;45.31;98415.78;5320886;26;20020;-83
2024/04/13 01:00:56;;;;;;;4.32;3.67;;;;;;;18.99;45.88;98409.47;5360303;26;20004;-85
2024/04/13 01:03:22;;;;;;;4.03;2.90;;;;;;;19.05;45.76;98414.44;5294113;26;20037;-85
2024/04/13 01:05:48;;;;;;;4.72;3.30;;;;;;;19.05;45.58;98416.31;5349658;26;20027;-85
2024/04/13 01:08:15;;;;;;;4.28;3.08;;;;;;;18.98;45.81;98407.88;5313403;26;20064;-86
2024/04/13 01:10:45;;;;;;;2.83;2.63;;;;;;;19.03;46.01;98407.88;5325825;26;20009;-85
2024/04/13 01:13:10;;;;;;;3.38;2.88;;;;;;;18.93;46.04;98411.31;5278333;26;20015;-84
2024/04/13 01:15:36;;;;;;;3.17;2.85;;;;;;;18.99;45.94;98412.91;5332775;26;20020;-85
2024/04/13 01:18:10;;;;;;;2.72;2.53;;;;;;;18.96;46.05;98402.09;5305785;26;20009;-85
2024/04/13 01:20:43;;;;;;;3.15;2.72;;;;;;;19.05;46.05;98411.03;5350619;26;20019;-84
2024/04/13 01:23:11;;;;;;;4.15;2.83;;;;;;;18.94;46.66;98405.00;5308684;26;20028;-84
2024/04/13 01:25:43;;;;;;;3.08;2.30;;;;;;;18.99;46.53;98406.84;5342470;26;20404;-85
2024/04/13 01:28:14;;;;;;;2.35;2.08;;;;;;;18.94;46.76;98410.28;5346013;26;20021;-83
2024/04/13 01:30:40;;;;;;;2.72;2.10;;;;;;;18.92;46.55;98417.66;5348846;26;20000;-84
2024/04/13 01:33:06;;;;;;;2.75;2.22;;;;;;;18.94;46.41;98405.00;5356824;26;20014;-85
2024/04/13 01:35:31;;;;;;;2.40;2.20;;;;;;;18.96;46.30;98404.72;5298923;26;20045;-83
2024/04/13 01:37:57;;;;;;;3.90;2.70;;;;;;;18.90;46.36;98402.09;5308282;26;20016;-84
2024/04/13 01:40:22;;;;;;;2.50;2.25;;;;;;;18.93;46.26;98402.63;5335577;26;20005;-85
2024/04/13 01:42:48;;;;;;;3.00;2.33;;;;;;;18.91;46.13;98400.25;5298912;26;20004;-85
2024/04/13 01:45:13;;;;;;;2.63;2.28;;;;;;;18.95;46.22;98396.00;5341164;26;20004;-85
2024/04/13 01:47:39;;;;;;;2.63;2.05;;;;;;;19.01;46.08;98399.44;5341442;26;20340;-83
2024/04/13 01:50:05;;;;;;;2.97;2.22;;;;;;;18.94;45.72;98383.09;5339599;26;20009;-84
2024/04/13 01:52:31;;;;;;;2.50;2.30;;;;;;;18.98;46.08;98399.97;5361312;26;20037;-86
2024/04/13 01:54:56;;;;;;;2.65;2.25;;;;;;;18.85;45.89;98390.75;5334746;26;20016;-84
2024/04/13 01:57:21;;;;;;;2.50;2.05;;;;;;;18.88;46.08;98398.94;5336157;26;20023;-83
2024/04/13 01:59:47;;;;;;;2.72;2.53;;;;;;;18.84;45.89;98400.53;5296658;27;20005;-86
2024/04/13 02:02:13;;;;;;;2.85;2.63;;;;;;;18.79;46.08;98389.16;5303119;26;20454;-85
2024/04/13 02:04:38;;;;;;;3.15;2.38;;;;;;;18.77;46.28;98397.34;5323210;26;20028;-83
2024/04/13 02:07:07;;;;;;;2.60;2.33;;;;;;;18.70;46.14;98383.66;5328839;26;20012;-85
2024/04/13 02:09:33;;;;;;;2.53;2.30;;;;;;;18.73;46.06;98396.31;5361391;26;20020;-85
2024/04/13 02:11:59;;;;;;;3.78;2.60;;;;;;;18.75;46.26;98390.75;5304361;27;20013;-84
2024/04/13 02:14:25;;;;;;;3.55;2.72;;;;;;;18.73;45.98;98398.94;5309929;26;20008;-85
2024/04/13 02:16:52;;;;;;;2.88;2.45;;;;;;;18.74;46.07;98400.50;5313332;26;20024;-86
2024/04/13 02:19:18;;;;;;;2.85;2.30;;;;;;;18.66;46.34;98398.41;5344817;26;20005;-86
2024/04/13 02:21:43;;;;;;;3.08;2.30;;;;;;;18.69;46.34;98395.25;5331637;26;20001;-84
2024/04/13 02:24:09;;;;;;;3.10;2.38;;;;;;;18.63;46.30;98391.84;5335816;26;20043;-84
2024/04/13 02:26:34;;;;;;;2.42;2.13;;;;;;;18.71;46.38;98393.13;5263222;26;20458;-85
2024/04/13 02:28:59;;;;;;;2.38;2.15;;;;;;;18.69;46.23;98382.06;5329949;26;20021;-83
2024/04/13 02:31:25;;;;;;;3.08;2.30;;;;;;;18.75;46.42;98385.47;5291839;26;20005;-86
2024/04/13 02:33:50;;;;;;;2.45;2.00;;;;;;;18.76;46.22;98379.91;5328295;26;20020;-85
2024/04/13 02:36:16;;;;;;;2.88;2.50;;;;;;;18.75;45.90;98383.63;5343149;26;20089;-84
2024/04/13 02:38:46;;;;;;;2.78;2.40;;;;;;;18.86;45.74;98379.16;5350389;26;20035;-85
2024/04/13 02:41:12;;;;;;;3.28;2.60;;;;;;;18.88;45.61;98382.31;5340365;26;20005;-82
2024/04/13 02:43:38;;;;;;;2.88;2.67;;;;;;;18.79;45.86;98382.03;5334417;26;20009;-85
2024/04/13 02:46:11;;;;;;;2.97;2.40;;;;;;;18.88;45.84;98383.09;5306430;26;20005;-86
2024/04/13 02:48:43;;;;;;;3.25;2.50;;;;;;;18.89;45.70;98381.25;5301424;26;20016;-86
2024/04/13 02:51:10;;;;;;;3.95;2.63;;;;;;;18.75;45.69;98386.28;5294948;26;20064;-84
2024/04/13 02:53:36;;;;;;;2.72;2.53;;;;;;;18.61;45.79;98374.69;5331137;26;20022;-86
2024/04/13 02:56:06;;;;;;;2.90;2.60;;;;;;;18.61;45.65;98369.41;5275605;26;20486;-84
2024/04/13 02:58:32;;;;;;;3.50;2.47;;;;;;;18.64;45.74;98361.75;5290414;26;20009;-81
2024/04/13 03:00:59;;;;;;;4.45;2.40;;;;;;;18.57;46.19;98374.44;5272760;26;20004;-81
2024/04/13 03:03:28;;;;;;;3.63;2.50;;;;;;;18.54;45.81;98377.59;5311627;26;20445;-81
2024/04/13 03:06:00;;;;;;;2.53;2.30;;;;;;;18.59;45.78;98371.53;5311214;26;20052;-81
2024/04/13 03:08:26;;;;;;;3.13;2.58;;;;;;;18.39;46.42;98361.81;5311890;26;20013;-82
2024/04/13 03:11:00;;;;;;;2.85;2.65;;;;;;;18.51;46.14;98365.75;5308433;26;20020;-82
2024/04/13 03:13:26;;;;;;;3.33;2.72;;;;;;;18.44;45.97;98359.97;5333322;26;20060;-84
2024/04/13 03:15:58;;;;;;;3.50;3.20;;;;;;;18.58;46.16;98375.25;5303752;27;20583;-83
2024/04/13 03:18:25;;;;;;;3.33;2.80;;;;;;;18.45;46.28;98372.06;5298567;26;20020;-83
2024/04/13 03:20:51;;;;;;;3.60;3.22;;;;;;;18.60;45.89;98367.84;5334670;26;20012;-85
2024/04/13 03:23:16;;;;;;;3.70;3.00;;;;;;;18.55;46.10;98366.00;5337448;26;20024;-86
2024/04/13 03:25:42;;;;;;;3.72;2.67;;;;;;;18.42;46.17;98356.81;5321122;26;20020;-86
2024/04/13 03:28:08;;;;;;;3.83;2.95;;;;;;;18.49;46.08;98353.88;5301860;26;20015;-85
2024/04/13 03:30:34;;;;;;;5.15;3.05;;;;;;;18.65;46.13;98349.38;5320750;26;20005;-84
2024/04/13 03:33:00;;;;;;;3.47;3.17;;;;;;;18.77;46.34;98363.03;5314701;26;20013;-85
2024/04/13 03:35:25;;;;;;;3.95;3.10;;;;;;;18.77;46.31;98365.69;5311700;26;20024;-83
2024/04/13 03:37:52;;;;;;;4.05;3.08;;;;;;;18.69;46.32;98360.94;5294586;26;20024;-85
2024/04/13 03:40:19;;;;;;;5.70;3.40;;;;;;;18.65;46.17;98354.63;5291100;26;20495;-86
2024/04/13 03:42:45;;;;;;;4.55;3.75;;;;;;;18.52;46.43;98361.25;5340201;26;20015;-85
2024/04/13 03:45:10;;;;;;;3.58;2.90;;;;;;;18.47;46.63;98359.44;5325216;26;20099;-81
2024/04/13 03:47:36;;;;;;;3.00;2.72;;;;;;;18.47;46.46;98354.16;5287474;26;20016;-82
2024/04/13 03:50:01;;;;;;;3.70;2.95;;;;;;;18.56;46.52;98358.88;5314594;26;20004;-82
2024/04/13 03:52:26;;;;;;;6.05;3.15;;;;;;;18.62;46.11;98365.72;5282575;26;20046;-81
2024/04/13 03:54:52;;;;;;;4.38;3.10;;;;;;;18.81;45.87;98361.44;5355792;26;20012;-82
2024/04/13 03:57:17;;;;;;;3.60;3.28;;;;;;;18.82;46.00;98360.41;5307499;26;20032;-82
2024/04/13 03:59:43;;;;;;;3.33;3.00;;;;;;;18.76;45.93;98361.44;5282946;26;20020;-82
2024/04/13 04:02:08;;;;;;;5.57;3.13;;;;;;;18.89;45.72;98365.41;5328216;26;20009;-84
2024/04/13 04:04:33;;;;;;;3.67;3.05;;;;;;;18.87;45.80;98352.50;5340130;26;20005;-85
2024/04/13 04:06:59;;;;;;;3.83;3.17;;;;;;;18.78;45.50;98348.81;5297921;26;20017;-85
2024/04/13 04:09:24;;;;;;;4.53;3.50;;;;;;;18.66;45.80;98350.94;5307419;26;20441;-86
2024/04/13 04:11:50;;;;;;;4.05;2.80;;;;;;;18.62;46.12;98339.34;5283546;26;20032;-85
2024/04/13 04:14:15;;;;;;;3.47;2.75;;;;;;;18.58;45.90;98338.31;5290491;26;20016;-85
2024/04/13 04:16:40;;;;;;;4.03;3.17;;;;;;;18.50;46.11;98343.03;5370822;26;20005;-85
2024/04/13 04:19:08;;;;;;;3.50;3.20;;;;;;;18.55;45.99;98334.34;5319203;26;20019;-86
2024/04/13 04:21:33;;;;;;;3.17;2.88;;;;;;;18.64;46.14;98339.84;5357694;26;20000;-85
2024/04/13 04:23:58;;;;;;;5.25;3.05;;;;;;;18.68;46.15;98336.44;5318940;26;20102;-82
2024/04/13 04:26:24;;;;;;;3.83;3.10;;;;;;;18.64;46.51;98342.50;5306972;26;20008;-82
2024/04/13 04:28:49;;;;;;;3.88;2.90;;;;;;;18.48;46.50;98333.84;5324695;26;20040;-81
2024/04/13 04:31:15;;;;;;;4.60;2.97;;;;;;;18.51;46.32;98339.38;5316665;26;20017;-81
2024/04/13 04:33:40;;;;;;;4.80;2.97;;;;;;;18.37;46.50;98342.81;5275547;27;20393;-82
2024/04/13 04:36:07;;;;;;;3.63;2.90;;;;;;;18.29;46.63;98338.88;5312845;26;20004;-82
2024/04/13 04:38:33;;;;;;;3.63;3.05;;;;;;;18.23;46.64;98343.38;5361687;26;20055;-82
2024/04/13 04:40:58;;;;;;;4.20;3.08;;;;;;;18.12;46.54;98337.31;5325634;26;20169;-82
2024/04/13 04:43:23;;;;;;;2.80;2.53;;;;;;;18.05;46.59;98334.16;5312889;26;20006;-82
2024/04/13 04:45:49;;;;;;;4.82;3.00;;;;;;;18.22;46.73;98347.06;5353771;26;20013;-81
2024/04/13 04:48:14;;;;;;;3.95;3.25;;;;;;;18.32;46.40;98341.78;5308221;26;20020;-81
2024/04/13 04:50:40;;;;;;;4.78;3.50;;;;;;;18.44;46.20;98341.50;5311103;26;20024;-82
2024/04/13 04:53:05;;;;;;;4.28;3.20;;;;;;;18.52;46.56;98351.50;5271590;26;20036;-82
2024/04/13 04:55:30;;;;;;;4.05;2.85;;;;;;;18.63;46.59;98349.63;5315931;26;20024;-82
2024/04/13 04:57:56;;;;;;;4.25;3.20;;;;;;;18.55;46.65;98338.84;5279799;26;20019;-82
2024/04/13 05:00:21;;;;;;;4.60;3.20;;;;;;;18.50;46.92;98350.19;5335873;26;20015;-82
2024/04/13 05:02:46;;;;;;;3.72;3.40;;;;;;;18.41;46.83;98347.28;5300826;26;20005;-82
2024/04/13 05:05:12;;;;;;;3.30;3.00;;;;;;;18.47;46.96;98343.59;5322913;26;20273;-81
2024/04/13 05:07:38;;;;;;;4.47;3.20;;;;;;;18.58;46.65;98352.28;5334050;26;20015;-81
2024/04/13 05:10:04;;;;;;;3.65;3.35;;;;;;;18.64;46.73;98353.81;5282066;26;20534;-82
2024/04/13 05:12:30;;;;;;;4.40;3.10;;;;;;;18.65;46.62;98352.78;5288649;26;20012;-82
2024/04/13 05:14:55;;;;;;;4.70;3.47;;;;;;;18.70;46.64;98346.72;5293172;26;20372;-81
2024/04/13 05:17:21;;;;;;;5.25;2.97;;;;;;;18.70;46.25;98347.50;5332654;26;20054;-85
2024/04/13 05:19:46;;;;;;;3.30;3.00;;;;;;;18.59;46.65;98343.28;5332697;26;20602;-85
2024/04/13 05:22:11;;;;;;;3.63;2.88;;;;;;;18.55;46.61;98339.63;5335192;26;20014;-85
2024/04/13 05:24:37;;;;;;;3.53;3.22;;;;;;;18.62;46.81;98341.97;5334832;26;20015;-85
2024/04/13 05:27:06;;;;;;;4.20;3.20;;;;;;;18.69;46.73;98345.13;5335092;26;20019;-86
2024/04/13 05:29:32;;;;;;;4.40;3.00;;;;;;;18.67;46.63;98349.88;5315384;26;20005;-86
2024/04/13 05:31:58;;;;;;;3.70;3.03;;;;;;;18.65;46.48;98349.38;5319858;26;20005;-86
2024/04/13 05:34:23;;;;;;;3.50;3.13;;;;;;;18.68;46.56;98348.84;5369281;26;20027;-86
2024/04/13 05:36:48;;;;;;;3.45;2.80;;;;;;;18.69;46.55;98345.13;5351114;26;20050;-85
2024/04/13 05:39:14;;;;;;;4.55;3.13;;;;;;;18.70;46.47;98352.00;5286455;26;20817;-84
2024/04/13 05:41:39;;;;;;;3.95;3.10;;;;;;;18.73;46.83;98356.72;5269332;27;20121;-85
2024/04/13 05:44:05;;;;;;;3.30;2.80;;;;;;;18.84;46.70;98368.06;5299407;26;20021;-84
2024/04/13 05:46:30;;;;;;;3.95;3.30;;;;;;;18.88;46.65;98369.91;5357006;26;20019;-86
2024/04/13 05:48:56;;;;;;;3.33;2.88;;;;;;;18.90;46.70;98362.50;5354149;26;20015;-85
2024/04/13 05:51:21;;;;;;;3.35;2.97;;;;;;;19.00;46.74;98364.31;5290949;27;20009;-84
2024/04/13 05:53:46;;;;;;;3.72;3.40;;;;;;;19.10;46.82;98366.13;5311175;26;20019;-85
2024/04/13 05:56:12;;;;;;;3.88;3.35;;;;;;;19.16;46.89;98367.69;5367429;26;20012;-86
2024/04/13 05:58:37;;;;;;;3.83;2.90;;;;;;;19.33;46.75;98363.91;5329864;26;20023;-85
2024/04/13 06:01:03;;;;;;;4.78;3.28;;;;;;;19.38;47.10;98358.59;5326066;26;20052;-88
2024/04/13 06:03:28;;;;;;;3.88;3.05;;;;;;;19.51;47.14;98367.78;5309845;26;20732;-87
2024/04/13 06:05:54;;;;;;;3.75;3.22;;;;;;;19.55;47.17;98368.81;5319234;26;20005;-87
2024/04/13 06:08:19;;;;;;;3.83;2.97;;;;;;;19.61;47.22;98360.59;5322026;26;20204;-87
2024/04/13 06:10:44;;;;;;;3.88;2.88;;;;;;;19.84;47.32;98374.19;5284317;26;20005;-86
2024/04/13 06:13:10;;;;;;;5.60;3.80;;;;;;;20.07;47.25;98371.94;5320960;26;20484;-87
2024/04/13 06:15:38;;;;;;;4.85;3.33;;;;;;;20.21;46.95;98372.88;5339708;26;20475;-86
2024/04/13 06:18:04;;;;;;;4.68;3.13;;;;;;;20.20;47.14;98377.38;5282940;26;20072;-87
2024/04/13 06:20:29;;;;;;;4.15;3.22;;;;;;;20.20;47.14;98379.22;5313903;26;20053;-84
2024/04/13 06:22:55;;;;;;;3.40;3.10;;;;;;;20.10;46.96;98364.25;5304038;26;20060;-87
2024/04/13 06:25:20;;;;;;;4.57;3.25;;;;;;;20.15;47.01;98358.09;5340869;26;20009;-88
2024/04/13 06:27:45;;;;;;;3.25;2.88;;;;;;;20.26;46.87;98374.69;5302671;26;20001;-87
2024/04/13 06:30:13;;;;;;;4.13;3.60;;;;;;;20.28;46.98;98361.97;5309042;26;20440;-86
2024/04/13 06:32:38;;;;;;;5.93;3.35;;;;;;;20.40;46.57;98378.25;5293023;26;20009;-88
2024/04/13 06:35:04;;;;;;;3.50;3.17;;;;;;;20.50;46.03;98382.66;5316122;26;20012;-87
2024/04/13 06:37:30;;;;;;;5.07;3.58;;;;;;;20.57;46.31;98391.06;5352842;26;20006;-86
2024/04/13 06:39:55;;;;;;;3.53;3.13;;;;;;;20.63;46.23;98387.34;5303090;26;20079;-86
2024/04/13 06:42:20;;;;;;;3.45;3.15;;;;;;;20.69;46.18;98377.47;5312441;26;20004;-87
2024/04/13 06:44:46;;;;;;;3.80;2.95;;;;;;;20.72;46.40;98382.22;5337540;26;20001;-88
2024/04/13 06:47:11;;;;;;;3.80;3.30;;;;;;;20.82;46.24;98381.31;5277779;27;20010;-86
2024/04/13 06:49:37;;;;;;;3.75;2.90;;;;;;;20.99;45.84;98394.09;5297759;26;20391;-87
2024/04/13 06:52:03;;;;;;;4.32;3.03;;;;;;;21.09;46.10;98388.69;5311972;26;20009;-87
2024/04/13 06:54:28;;;;;;;6.05;3.50;;;;;;;21.24;46.25;98395.66;5290311;26;20009;-87
2024/04/13 06:56:53;;;;;;;4.32;3.17;;;;;;;21.42;45.49;98391.44;5303660;26;20410;-86
2024/04/13 06:59:19;;;;;;;4.45;2.85;;;;;;;21.53;45.69;98392.91;5336704;26;20019;-87
2024/04/13 07:01:44;;;;;;;3.95;3.20;;;;;;;21.72;45.79;98384.97;5333219;26;20079;-85
2024/04/13 07:04:09;;;;;;;4.60;3.13;;;;;;;21.95;45.95;98390.47;5312688;26;20016;-88
2024/04/13 07:06:38;;;;;;;3.70;3.35;;;;;;;22.11;45.69;98383.06;5328439;26;20007;-86
2024/04/13 07:09:04;;;;;;;3.95;3.10;;;;;;;22.32;45.82;98394.16;5325735;26;20004;-88
2024/04/13 07:11:30;;;;;;;4.00;3.42;;;;;;;22.56;44.89;98392.13;5328407;26;20021;-84
2024/04/13 07:13:55;;;;;;;4.13;3.25;;;;;;;22.65;44.69;98391.47;5325738;26;20016;-87
2024/04/13 07:16:21;;;;;;;4.55;3.15;;;;;;;22.78;44.85;98388.03;5326398;26;20476;-88
2024/04/13 07:18:46;;;;;;;3.42;3.08;;;;;;;22.90;44.62;98385.66;5383918;26;20030;-86
2024/04/13 07:21:12;;;;;;;3.42;3.00;;;;;;;23.11;43.73;98386.06;5359009;26;20481;-87
2024/04/13 07:23:37;;;;;;;3.03;2.60;;;;;;;23.37;43.24;98380.22;5341616;26;20027;-88
2024/04/13 07:26:04;;;;;;;4.03;2.90;;;;;;;23.61;42.13;98377.31;5306259;26;20019;-85
2024/04/13 07:28:30;;;;;;;5.60;2.90;;;;;;;23.81;41.44;98372.63;5330419;26;20059;-88
2024/04/13 07:30:57;;;;;;;3.88;2.97;;;;;;;23.93;41.13;98371.03;5359086;26;20001;-86
2024/04/13 07:33:22;;;;;;;2.90;2.50;;;;;;;24.08;40.42;98361.88;5275973;26;20435;-87
2024/04/13 07:35:50;;;;;;;4.40;2.72;;;;;;;24.35;39.96;98365.50;5334711;26;20004;-83
2024/04/13 07:38:16;;;;;;;3.47;2.38;;;;;;;24.44;40.26;98357.56;5280542;26;20004;-88
2024/04/13 07:40:41;;;;;;;3.72;2.47;;;;;;;24.77;38.92;98357.22;5310146;26;20476;-86
2024/04/13 07:43:07;;;;;;;4.28;2.70;;;;;;;24.75;39.26;98348.78;5308201;26;20038;-85
2024/04/13 07:45:32;;;;;;;4.25;2.67;;;;;;;24.91;39.13;98365.09;5324053;26;20048;-86
2024/04/13 07:47:57;;;;;;;3.35;2.22;;;;;;;25.04;38.75;98356.97;5337908;26;20452;-86
2024/04/13 07:50:23;;;;;;;5.03;2.72;;;;;;;25.08;38.38;98354.47;5331032;26;20020;-87
2024/04/13 07:52:49;;;;;;;3.70;1.90;;;;;;;25.17;38.47;98355.31;5270470;27;20017;-86
2024/04/13 07:55:14;;;;;;;3.60;1.65;;;;;;;25.21;38.23;98353.56;5351741;26;20013;-87
2024/04/13 07:57:40;;;;;;;2.20;2.00;;;;;;;25.36;37.75;98348.91;5302461;26;20000;-87
2024/04/13 08:00:06;;;;;;;3.03;2.40;;;;;;;25.28;37.94;98339.03;5331654;26;20019;-86
2024/04/13 08:02:32;;;;;;;3.15;1.88;;;;;;;25.65;37.81;98353.59;5299488;26;20353;-87
2024/04/13 08:04:57;;;;;;;2.97;1.77;;;;;;;25.82;37.04;98347.47;5306550;26;20074;-86
2024/04/13 08:07:23;;;;;;;3.25;2.00;;;;;;;26.08;37.04;98341.34;5268788;26;20005;-85
2024/04/13 08:09:48;;;;;;;2.50;2.30;;;;;;;26.22;36.52;98341.13;5310521;26;20503;-87
2024/04/13 08:12:15;;;;;;;2.08;1.90;;;;;;;26.31;36.14;98345.34;5261519;26;20012;-85
2024/04/13 08:14:41;;;;;;;3.58;2.30;;;;;;;26.54;35.86;98339.78;5345745;26;20012;-86
2024/04/13 08:17:07;;;;;;;2.10;1.90;;;;;;;26.34;36.02;98338.59;5291485;27;20009;-84
2024/04/13 08:19:32;;;;;;;2.97;2.00;;;;;;;26.37;36.18;98326.50;5316761;26;20013;-86
2024/04/13 08:21:58;;;;;;;2.90;1.85;;;;;;;26.53;35.43;98338.22;5312873;26;20008;-86
2024/04/13 08:24:23;;;;;;;4.82;2.20;;;;;;;26.63;35.38;98337.88;5341416;26;20005;-86
2024/04/13 08:26:50;;;;;;;4.28;2.00;;;;;;;26.60;35.54;98322.47;5319103;26;20021;-86
2024/04/13 08:29:15;;;;;;;2.63;2.10;;;;;;;26.79;35.66;98326.66;5299114;26;20014;-87
2024/04/13 08:31:41;;;;;;;2.85;2.30;;;;;;;26.97;35.10;98322.75;5315607;26;20036;-85
2024/04/13 08:34:07;;;;;;;3.08;2.30;;;;;;;27.06;34.84;98334.19;5331239;26;20015;-86
2024/04/13 08:36:32;;;;;;;4.75;2.28;;;;;;;27.15;34.78;98328.00;5289498;26;20012;-85
2024/04/13 08:38:57;;;;;;;2.92;1.88;;;;;;;27.12;35.31;98329.41;5317478;26;20048;-86
2024/04/13 08:41:37;;;;;;;2.40;2.00;;;;;;;27.40;35.37;98328.94;5325799;26;20013;-87
2024/04/13 08:44:03;;;;;;;2.95;1.55;;;;;;;27.38;34.96;98331.16;5267431;27;20021;-84
2024/04/13 08:46:30;;;;;;;3.83;2.08;;;;;;;27.62;34.64;98325.94;5309223;26;20064;-86
2024/04/13 08:48:56;;;;;;;2.88;2.08;;;;;;;27.81;33.83;98333.47;5308198;26;20004;-85
2024/04/13 08:51:22;;;;;;;2.25;2.05;;;;;;;27.86;34.35;98329.78;5314696;26;20068;-86
2024/04/13 08:53:49;;;;;;;3.38;2.42;;;;;;;28.10;33.55;98323.72;5322302;26;20001;-86
2024/04/13 08:56:15;;;;;;;3.50;2.13;;;;;;;28.30;33.09;98324.75;5309282;26;20463;-87
2024/04/13 08:58:41;;;;;;;3.25;2.33;;;;;;;28.27;33.05;98324.66;5320659;26;20001;-85
2024/04/13 09:01:12;;;;;;;2.40;2.20;;;;;;;28.26;33.04;98315.03;5292093;26;20082;-86
2024/04/13 09:03:37;;;;;;;3.35;2.60;;;;;;;28.27;33.11;98322.75;5324922;26;20076;-87
2024/04/13 09:06:03;;;;;;;3.90;2.20;;;;;;;28.26;32.95;98323.06;5332481;26;20008;-86
2024/04/13 09:08:31;;;;;;;3.00;1.90;;;;;;;28.43;32.92;98324.78;5309745;26;20020;-87
2024/04/13 09:10:59;;;;;;;4.18;2.85;;;;;;;27.96;33.92;98309.88;5318350;26;20084;-86
2024/04/13 09:13:24;;;;;;;3.08;2.25;;;;;;;27.96;34.45;98323.25;5303255;26;20009;-84
2024/04/13 09:15:50;;;;;;;2.38;2.17;;;;;;;28.22;32.74;98328.31;5358190;26;20462;-85
2024/04/13 09:18:15;;;;;;;2.58;1.95;;;;;;;28.02;34.03;98316.59;5325933;26;20016;-86
2024/04/13 09:20:41;;;;;;;7.55;3.35;;;;;;;28.45;34.29;98317.97;5313561;26;20015;-85
2024/04/13 09:23:07;;;;;;;2.03;1.83;;;;;;;28.55;32.82;98314.88;5332020;26;20023;-85
2024/04/13 09:25:32;;;;;;;2.70;2.10;;;;;;;28.42;33.19;98307.91;5303606;26;20093;-86
2024/04/13 09:28:04;;;;;;;2.83;2.40;;;;;;;28.88;32.02;98305.91;5356184;26;19992;-85
2024/04/13 09:30:31;;;;;;;2.63;2.20;;;;;;;28.91;31.87;98307.94;5284832;27;20013;-85
2024/04/13 09:33:00;;;;;;;2.10;1.92;;;;;;;29.06;32.17;98302.97;5295593;26;20024;-85
2024/04/13 09:35:26;;;;;;;2.53;2.08;;;;;;;28.91;31.84;98291.84;5348795;26;20094;-84
2024/04/13 09:37:58;;;;;;;2.08;1.80;;;;;;;28.89;32.38;98299.44;5341503;26;20009;-85
2024/04/13 09:40:24;;;;;;;3.30;2.10;;;;;;;29.14;31.82;98302.06;5373818;26;20031;-85
2024/04/13 09:42:50;;;;;;;3.72;2.53;;;;;;;29.14;31.26;98299.38;5263305;26;20011;-84
2024/04/13 09:45:15;;;;;;;2.88;2.00;;;;;;;29.35;31.09;98293.09;5300521;26;20004;-84
2024/04/13 09:47:40;;;;;;;2.13;1.85;;;;;;;28.97;31.88;98295.06;5293467;26;20001;-86
2024/04/13 09:50:06;;;;;;;2.05;1.83;;;;;;;29.29;30.73;98281.81;5301515;26;20365;-83
2024/04/13 09:52:32;;;;;;;2.60;1.98;;;;;;;29.14;31.43;98280.59;5336106;26;20012;-83
2024/04/13 09:54:59;;;;;;;2.10;1.95;;;;;;;29.44;31.07;98275.72;5311434;26;20004;-86
2024/04/13 09:57:24;;;;;;;3.63;1.90;;;;;;;29.52;30.47;98276.69;5290245;26;20017;-87
2024/04/13 09:59:51;;;;;;;2.03;1.73;;;;;;;29.63;30.72;98274.28;5289240;26;20109;-84
2024/04/13 10:02:17;;;;;;;3.08;2.40;;;;;;;29.59;32.45;98268.81;5313555;26;20009;-83
2024/04/13 10:04:43;;;;;;;2.83;1.73;;;;;;;29.79;30.02;98268.97;5264885;26;20035;-85
2024/04/13 10:07:10;;;;;;;3.35;2.08;;;;;;;29.68;31.53;98264.09;5318560;26;20020;-85
2024/04/13 10:09:35;;;;;;;2.65;1.85;;;;;;;29.81;30.42;98272.09;5304414;26;20013;-85
2024/04/13 10:12:02;;;;;;;3.65;1.92;;;;;;;29.62;30.25;98262.75;5314066;26;20046;-85
2024/04/13 10:14:29;;;;;;;4.30;2.20;;;;;;;29.94;29.91;98260.16;5316886;26;20020;-80
2024/04/13 10:16:56;;;;;;;1.90;1.70;;;;;;;30.00;30.50;98268.72;5320297;26;20023;-81
2024/04/13 10:19:22;;;;;;;2.05;1.95;;;;;;;30.13;30.00;98270.19;5329450;26;20533;-80
2024/04/13 10:22:13;;;;;;;2.20;2.10;;;;;;;30.17;31.17;98267.59;5287536;26;20008;-80
2024/04/13 10:24:45;;;;;;;1.95;1.80;;;;;;;30.18;30.11;98250.38;5322436;26;20015;-80
2024/04/13 10:27:12;;;;;;;2.85;2.00;;;;;;;30.08;30.66;98250.88;5318033;26;20572;-80
2024/04/13 10:29:40;;;;;;;1.70;1.60;;;;;;;30.53;29.64;98258.47;5354171;26;20048;-80
2024/04/13 10:32:22;;;;;;;2.60;1.90;;;;;;;30.61;30.65;98254.03;5315529;26;20005;-80
2024/04/13 10:34:48;;;;;;;3.13;2.03;;;;;;;30.94;31.05;98255.53;5344489;26;20460;-81
2024/04/13 10:37:33;;;;;;;2.45;2.25;;;;;;;31.17;29.13;98256.38;5312033;26;20377;-80
2024/04/13 10:40:01;;;;;;;2.50;2.30;;;;;;;31.02;29.52;98246.47;5274762;26;20515;-80
2024/04/13 10:42:37;;;;;;;2.00;1.77;;;;;;;31.24;28.54;98252.25;5368038;26;20543;-79
2024/04/13 10:45:09;;;;;;;3.40;1.90;;;;;;;31.06;28.59;98241.94;5351306;26;20341;-81
2024/04/13 10:47:34;;;;;;;2.00;1.90;;;;;;;30.46;29.93;98233.34;5325467;26;20059;-80
2024/04/13 10:50:00;;;;;;;2.22;1.75;;;;;;;30.76;28.71;98229.03;5288647;26;20025;-80
2024/04/13 10:52:26;;;;;;;3.15;1.80;;;;;;;31.01;28.32;98234.16;5282063;26;20013;-80
2024/04/13 10:54:55;;;;;;;2.42;2.10;;;;;;;31.31;28.07;98228.19;5318678;26;20380;-81
2024/04/13 10:57:21;;;;;;;2.47;2.25;;;;;;;31.07;28.52;98221.19;5277535;26;20016;-80
2024/04/13 10:59:46;;;;;;;3.03;2.10;;;;;;;31.22;28.69;98217.63;5317145;26;20000;-80
2024/04/13 11:02:12;;;;;;;2.38;2.20;;;;;;;31.44;28.04;98215.34;5270796;26;20448;-81
2024/04/13 11:04:44;;;;;;;2.00;1.88;;;;;;;31.52;28.13;98211.69;5281239;26;20018;-82
2024/04/13 11:07:12;;;;;;;2.20;2.00;;;;;;;31.55;29.01;98209.03;5287940;26;20462;-80
2024/04/13 11:09:37;;;;;;;2.75;1.83;;;;;;;31.63;27.93;98201.06;5290214;26;20008;-80
2024/04/13 11:12:15;;;;;;;2.47;2.28;;;;;;;31.73;28.12;98205.88;5353363;26;20027;-80
2024/04/13 11:14:40;;;;;;;2.33;2.03;;;;;;;31.78;29.51;98212.88;5323384;26;20004;-79
2024/04/13 11:17:06;;;;;;;2.20;2.00;;;;;;;32.16;27.16;98211.94;5266532;26;20023;-81
2024/04/13 11:19:31;;;;;;;2.20;2.08;;;;;;;32.37;27.67;98192.63;5294120;26;20008;-80
2024/04/13 11:21:58;;;;;;;2.60;2.40;;;;;;;32.34;26.98;98208.72;5355651;26;20411;-81
2024/04/13 11:24:25;;;;;;;2.38;2.00;;;;;;;32.13;28.71;98193.81;5281841;26;20361;-79
2024/04/13 11:26:50;;;;;;;3.38;2.35;;;;;;;32.47;27.63;98189.28;5317199;26;20020;-81
2024/04/13 11:29:17;;;;;;;2.10;2.00;;;;;;;32.69;26.47;98188.81;5280009;27;20478;-81
2024/04/13 11:31:43;;;;;;;2.72;2.05;;;;;;;32.24;27.43;98192.03;5298992;26;20568;-81